sensor_id;sensor_type;location;lat;lon;timestamp;P1;durP1;ratioP1;P2;durP2;ratioP2
20884;SDS011;10602;48.000;9.654;2022-12-16T00:01:52;14.07;;;9.17;;
20884;SDS011;10602;48.000;9.654;2022-12-16T00:04:20;11.73;;;8.70;;
20884;SDS011;10602;48.000;9.654;2022-12-16T00:06:47;11.97;;;8.60;;
20884;SDS011;10602;48.000;9.654;2022-12-16T00:09:15;13.43;;;9.07;;
20884;SDS011;10602;48.000;9.654;2022-12-16T00:11:42;13.00;;;8.67;;
20884;SDS011;10602;48.000;9.654;2022-12-16T00:14:10;13.87;;;9.60;;
20884;SDS011;10602;48.000;9.654;2022-12-16T00:16:37;12.10;;;9.07;;
20884;SDS011;10602;48.000;9.654;2022-12-16T00:19:05;13.97;;;9.50;;
20884;SDS011;10602;48.000;9.654;2022-12-16T00:21:32;31.03;;;15.20;;
20884;SDS011;10602;48.000;9.654;2022-12-16T00:24:01;14.70;;;9.63;;
20884;SDS011;10602;48.000;9.654;2022-12-16T00:26:28;13.50;;;9.50;;
20884;SDS011;10602;48.000;9.654;2022-12-16T00:28:56;14.67;;;10.17;;
20884;SDS011;10602;48.000;9.654;2022-12-16T00:31:24;16.67;;;10.67;;
20884;SDS011;10602;48.000;9.654;2022-12-16T00:36:39;16.53;;;10.57;;
20884;SDS011;10602;48.000;9.654;2022-12-16T00:39:08;16.77;;;10.50;;
20884;SDS011;10602;48.000;9.654;2022-12-16T00:41:36;17.90;;;12.30;;
20884;SDS011;10602;48.000;9.654;2022-12-16T00:44:04;18.60;;;12.37;;
20884;SDS011;10602;48.000;9.654;2022-12-16T00:46:32;14.30;;;10.50;;
20884;SDS011;10602;48.000;9.654;2022-12-16T00:48:59;14.43;;;10.67;;
20884;SDS011;10602;48.000;9.654;2022-12-16T00:51:27;16.53;;;10.77;;
20884;SDS011;10602;48.000;9.654;2022-12-16T00:53:54;16.13;;;10.20;;
20884;SDS011;10602;48.000;9.654;2022-12-16T00:56:21;17.03;;;11.27;;
20884;SDS011;10602;48.000;9.654;2022-12-16T00:58:49;14.53;;;10.33;;
20884;SDS011;10602;48.000;9.654;2022-12-16T01:01:17;16.30;;;10.90;;
20884;SDS011;10602;48.000;9.654;2022-12-16T01:03:45;15.03;;;10.23;;
20884;SDS011;10602;48.000;9.654;2022-12-16T01:06:14;15.63;;;10.57;;
20884;SDS011;10602;48.000;9.654;2022-12-16T01:08:43;17.00;;;11.63;;
20884;SDS011;10602;48.000;9.654;2022-12-16T01:11:17;17.70;;;11.93;;
20884;SDS011;10602;48.000;9.654;2022-12-16T01:13:43;17.57;;;11.30;;
20884;SDS011;10602;48.000;9.654;2022-12-16T01:16:11;17.50;;;11.73;;
20884;SDS011;10602;48.000;9.654;2022-12-16T01:18:40;16.27;;;11.00;;
20884;SDS011;10602;48.000;9.654;2022-12-16T01:21:08;16.80;;;11.40;;
20884;SDS011;10602;48.000;9.654;2022-12-16T01:23:38;19.07;;;12.67;;
20884;SDS011;10602;48.000;9.654;2022-12-16T01:26:06;17.30;;;11.83;;
20884;SDS011;10602;48.000;9.654;2022-12-16T01:28:35;17.57;;;12.23;;
20884;SDS011;10602;48.000;9.654;2022-12-16T01:31:02;17.80;;;11.43;;
20884;SDS011;10602;48.000;9.654;2022-12-16T01:33:31;20.30;;;12.47;;
20884;SDS011;10602;48.000;9.654;2022-12-16T01:35:59;16.17;;;11.30;;
20884;SDS011;10602;48.000;9.654;2022-12-16T01:38:29;16.43;;;11.93;;
20884;SDS011;10602;48.000;9.654;2022-12-16T01:40:57;17.07;;;11.60;;
20884;SDS011;10602;48.000;9.654;2022-12-16T01:43:26;16.40;;;11.43;;
20884;SDS011;10602;48.000;9.654;2022-12-16T01:45:57;16.83;;;11.37;;
20884;SDS011;10602;48.000;9.654;2022-12-16T01:51:07;16.30;;;10.80;;
20884;SDS011;10602;48.000;9.654;2022-12-16T01:53:42;16.90;;;11.83;;
20884;SDS011;10602;48.000;9.654;2022-12-16T01:56:13;14.20;;;10.70;;
20884;SDS011;10602;48.000;9.654;2022-12-16T01:58:43;17.53;;;11.60;;
20884;SDS011;10602;48.000;9.654;2022-12-16T02:01:12;15.93;;;10.80;;
20884;SDS011;10602;48.000;9.654;2022-12-16T02:03:41;16.10;;;11.40;;
20884;SDS011;10602;48.000;9.654;2022-12-16T02:06:09;16.80;;;11.60;;
20884;SDS011;10602;48.000;9.654;2022-12-16T02:08:36;16.17;;;11.00;;
20884;SDS011;10602;48.000;9.654;2022-12-16T02:11:13;15.47;;;11.40;;
20884;SDS011;10602;48.000;9.654;2022-12-16T02:16:39;17.30;;;10.90;;
20884;SDS011;10602;48.000;9.654;2022-12-16T02:30:34;17.57;;;10.80;;
20884;SDS011;10602;48.000;9.654;2022-12-16T02:33:21;16.03;;;11.43;;
20884;SDS011;10602;48.000;9.654;2022-12-16T02:38:56;18.30;;;11.90;;
20884;SDS011;10602;48.000;9.654;2022-12-16T02:41:35;18.10;;;11.53;;
20884;SDS011;10602;48.000;9.654;2022-12-16T02:44:05;15.13;;;10.53;;
20884;SDS011;10602;48.000;9.654;2022-12-16T02:46:39;15.80;;;10.43;;
20884;SDS011;10602;48.000;9.654;2022-12-16T02:51:42;16.87;;;12.13;;
20884;SDS011;10602;48.000;9.654;2022-12-16T02:54:10;15.73;;;10.87;;
20884;SDS011;10602;48.000;9.654;2022-12-16T03:02:46;18.17;;;11.60;;
20884;SDS011;10602;48.000;9.654;2022-12-16T03:05:20;17.17;;;11.63;;
20884;SDS011;10602;48.000;9.654;2022-12-16T03:07:50;18.03;;;11.60;;
20884;SDS011;10602;48.000;9.654;2022-12-16T03:10:20;17.93;;;12.53;;
20884;SDS011;10602;48.000;9.654;2022-12-16T03:12:50;18.27;;;12.10;;
20884;SDS011;10602;48.000;9.654;2022-12-16T03:15:20;17.87;;;12.03;;
20884;SDS011;10602;48.000;9.654;2022-12-16T03:17:50;16.67;;;11.37;;
20884;SDS011;10602;48.000;9.654;2022-12-16T03:20:22;18.10;;;11.67;;
20884;SDS011;10602;48.000;9.654;2022-12-16T03:22:51;15.90;;;11.27;;
20884;SDS011;10602;48.000;9.654;2022-12-16T03:25:21;15.33;;;11.03;;
20884;SDS011;10602;48.000;9.654;2022-12-16T03:28:09;18.10;;;12.93;;
20884;SDS011;10602;48.000;9.654;2022-12-16T03:30:34;19.63;;;12.77;;
20884;SDS011;10602;48.000;9.654;2022-12-16T03:33:07;18.93;;;12.77;;
20884;SDS011;10602;48.000;9.654;2022-12-16T03:35:36;19.03;;;12.43;;
20884;SDS011;10602;48.000;9.654;2022-12-16T03:38:06;19.43;;;13.87;;
20884;SDS011;10602;48.000;9.654;2022-12-16T03:40:36;22.23;;;13.97;;
20884;SDS011;10602;48.000;9.654;2022-12-16T03:43:06;21.90;;;13.43;;
20884;SDS011;10602;48.000;9.654;2022-12-16T03:45:36;20.07;;;13.90;;
20884;SDS011;10602;48.000;9.654;2022-12-16T03:48:07;21.40;;;13.93;;
20884;SDS011;10602;48.000;9.654;2022-12-16T03:50:35;21.27;;;14.07;;
20884;SDS011;10602;48.000;9.654;2022-12-16T03:53:05;18.83;;;13.93;;
20884;SDS011;10602;48.000;9.654;2022-12-16T03:55:33;21.47;;;14.13;;
20884;SDS011;10602;48.000;9.654;2022-12-16T03:58:00;20.80;;;14.67;;
20884;SDS011;10602;48.000;9.654;2022-12-16T04:00:27;23.73;;;15.10;;
20884;SDS011;10602;48.000;9.654;2022-12-16T04:02:55;20.13;;;14.13;;
20884;SDS011;10602;48.000;9.654;2022-12-16T04:05:22;25.03;;;15.17;;
20884;SDS011;10602;48.000;9.654;2022-12-16T04:07:50;23.97;;;15.23;;
20884;SDS011;10602;48.000;9.654;2022-12-16T04:10:18;23.07;;;15.73;;
20884;SDS011;10602;48.000;9.654;2022-12-16T04:12:50;24.40;;;15.93;;
20884;SDS011;10602;48.000;9.654;2022-12-16T04:15:35;24.03;;;15.27;;
20884;SDS011;10602;48.000;9.654;2022-12-16T04:18:21;23.20;;;14.30;;
20884;SDS011;10602;48.000;9.654;2022-12-16T04:21:07;24.10;;;15.20;;
20884;SDS011;10602;48.000;9.654;2022-12-16T04:23:54;22.03;;;14.10;;
20884;SDS011;10602;48.000;9.654;2022-12-16T04:26:41;21.50;;;14.27;;
20884;SDS011;10602;48.000;9.654;2022-12-16T04:29:26;24.70;;;16.77;;
20884;SDS011;10602;48.000;9.654;2022-12-16T04:31:54;22.47;;;14.37;;
20884;SDS011;10602;48.000;9.654;2022-12-16T04:34:22;22.37;;;14.80;;
20884;SDS011;10602;48.000;9.654;2022-12-16T04:36:58;21.10;;;14.60;;
20884;SDS011;10602;48.000;9.654;2022-12-16T04:39:45;20.60;;;14.50;;
20884;SDS011;10602;48.000;9.654;2022-12-16T04:42:31;22.97;;;14.63;;
20884;SDS011;10602;48.000;9.654;2022-12-16T04:45:16;23.13;;;14.80;;
20884;SDS011;10602;48.000;9.654;2022-12-16T04:48:02;21.13;;;14.00;;
20884;SDS011;10602;48.000;9.654;2022-12-16T04:50:47;22.67;;;14.83;;
20884;SDS011;10602;48.000;9.654;2022-12-16T04:53:33;22.03;;;14.70;;
20884;SDS011;10602;48.000;9.654;2022-12-16T04:56:18;21.43;;;14.33;;
20884;SDS011;10602;48.000;9.654;2022-12-16T04:59:04;23.63;;;15.40;;
20884;SDS011;10602;48.000;9.654;2022-12-16T05:01:49;20.70;;;14.27;;
20884;SDS011;10602;48.000;9.654;2022-12-16T05:04:34;20.90;;;14.83;;
20884;SDS011;10602;48.000;9.654;2022-12-16T05:07:20;23.90;;;15.17;;
20884;SDS011;10602;48.000;9.654;2022-12-16T05:10:06;24.10;;;15.30;;
20884;SDS011;10602;48.000;9.654;2022-12-16T05:12:55;20.50;;;14.67;;
20884;SDS011;10602;48.000;9.654;2022-12-16T05:15:40;21.43;;;14.37;;
20884;SDS011;10602;48.000;9.654;2022-12-16T05:18:26;23.03;;;14.67;;
20884;SDS011;10602;48.000;9.654;2022-12-16T05:21:01;22.53;;;15.40;;
20884;SDS011;10602;48.000;9.654;2022-12-16T05:23:47;21.80;;;14.70;;
20884;SDS011;10602;48.000;9.654;2022-12-16T05:26:32;21.77;;;14.93;;
20884;SDS011;10602;48.000;9.654;2022-12-16T05:29:18;22.43;;;14.60;;
20884;SDS011;10602;48.000;9.654;2022-12-16T05:32:04;20.53;;;14.57;;
20884;SDS011;10602;48.000;9.654;2022-12-16T05:34:49;22.40;;;15.03;;
20884;SDS011;10602;48.000;9.654;2022-12-16T05:37:34;21.13;;;13.83;;
20884;SDS011;10602;48.000;9.654;2022-12-16T05:40:20;22.87;;;14.50;;
20884;SDS011;10602;48.000;9.654;2022-12-16T05:43:05;23.20;;;15.17;;
20884;SDS011;10602;48.000;9.654;2022-12-16T05:45:51;25.90;;;16.13;;
20884;SDS011;10602;48.000;9.654;2022-12-16T05:48:36;21.93;;;15.63;;
20884;SDS011;10602;48.000;9.654;2022-12-16T05:51:22;22.63;;;14.83;;
20884;SDS011;10602;48.000;9.654;2022-12-16T05:54:07;21.17;;;14.17;;
20884;SDS011;10602;48.000;9.654;2022-12-16T05:56:53;21.70;;;13.67;;
20884;SDS011;10602;48.000;9.654;2022-12-16T05:59:38;22.67;;;15.17;;
20884;SDS011;10602;48.000;9.654;2022-12-16T06:02:24;27.20;;;17.17;;
20884;SDS011;10602;48.000;9.654;2022-12-16T06:05:10;22.33;;;14.50;;
20884;SDS011;10602;48.000;9.654;2022-12-16T06:07:58;23.07;;;14.33;;
20884;SDS011;10602;48.000;9.654;2022-12-16T06:10:44;23.70;;;15.97;;
20884;SDS011;10602;48.000;9.654;2022-12-16T06:13:29;20.73;;;13.77;;
20884;SDS011;10602;48.000;9.654;2022-12-16T06:16:14;19.37;;;12.40;;
20884;SDS011;10602;48.000;9.654;2022-12-16T06:19:00;18.97;;;12.87;;
20884;SDS011;10602;48.000;9.654;2022-12-16T06:21:35;19.63;;;12.77;;
20884;SDS011;10602;48.000;9.654;2022-12-16T06:24:20;23.97;;;15.50;;
20884;SDS011;10602;48.000;9.654;2022-12-16T06:27:06;20.03;;;13.17;;
20884;SDS011;10602;48.000;9.654;2022-12-16T06:29:51;21.70;;;13.83;;
20884;SDS011;10602;48.000;9.654;2022-12-16T06:32:37;22.33;;;14.13;;
20884;SDS011;10602;48.000;9.654;2022-12-16T06:35:24;19.63;;;13.30;;
20884;SDS011;10602;48.000;9.654;2022-12-16T06:38:09;21.63;;;14.07;;
20884;SDS011;10602;48.000;9.654;2022-12-16T06:40:55;19.60;;;13.87;;
20884;SDS011;10602;48.000;9.654;2022-12-16T06:43:40;20.10;;;14.40;;
20884;SDS011;10602;48.000;9.654;2022-12-16T06:46:18;21.40;;;13.77;;
20884;SDS011;10602;48.000;9.654;2022-12-16T06:49:04;22.07;;;15.50;;
20884;SDS011;10602;48.000;9.654;2022-12-16T06:51:49;21.90;;;14.90;;
20884;SDS011;10602;48.000;9.654;2022-12-16T06:54:35;23.23;;;15.90;;
20884;SDS011;10602;48.000;9.654;2022-12-16T06:57:20;21.27;;;14.97;;
20884;SDS011;10602;48.000;9.654;2022-12-16T07:00:06;23.87;;;15.57;;
20884;SDS011;10602;48.000;9.654;2022-12-16T07:02:52;23.83;;;14.73;;
20884;SDS011;10602;48.000;9.654;2022-12-16T07:05:38;19.97;;;14.47;;
20884;SDS011;10602;48.000;9.654;2022-12-16T07:08:23;20.57;;;14.67;;
20884;SDS011;10602;48.000;9.654;2022-12-16T07:11:09;21.77;;;14.50;;
20884;SDS011;10602;48.000;9.654;2022-12-16T07:13:54;21.83;;;15.33;;
20884;SDS011;10602;48.000;9.654;2022-12-16T07:16:40;23.07;;;16.00;;
20884;SDS011;10602;48.000;9.654;2022-12-16T07:19:25;21.40;;;14.13;;
20884;SDS011;10602;48.000;9.654;2022-12-16T07:22:10;24.63;;;15.50;;
20884;SDS011;10602;48.000;9.654;2022-12-16T07:24:56;22.97;;;15.57;;
20884;SDS011;10602;48.000;9.654;2022-12-16T07:27:46;21.07;;;14.20;;
20884;SDS011;10602;48.000;9.654;2022-12-16T07:30:29;21.90;;;14.43;;
20884;SDS011;10602;48.000;9.654;2022-12-16T07:33:15;26.97;;;16.80;;
20884;SDS011;10602;48.000;9.654;2022-12-16T07:36:00;25.03;;;16.83;;
20884;SDS011;10602;48.000;9.654;2022-12-16T07:38:45;24.87;;;17.27;;
20884;SDS011;10602;48.000;9.654;2022-12-16T07:41:31;25.47;;;16.90;;
20884;SDS011;10602;48.000;9.654;2022-12-16T07:44:17;24.13;;;15.67;;
20884;SDS011;10602;48.000;9.654;2022-12-16T07:47:03;24.90;;;16.13;;
20884;SDS011;10602;48.000;9.654;2022-12-16T07:49:48;24.40;;;15.73;;
20884;SDS011;10602;48.000;9.654;2022-12-16T07:52:33;23.90;;;15.50;;
20884;SDS011;10602;48.000;9.654;2022-12-16T07:55:19;23.33;;;15.73;;
20884;SDS011;10602;48.000;9.654;2022-12-16T07:58:04;25.17;;;16.07;;
20884;SDS011;10602;48.000;9.654;2022-12-16T08:00:49;21.53;;;15.00;;
20884;SDS011;10602;48.000;9.654;2022-12-16T08:03:35;24.23;;;15.97;;
20884;SDS011;10602;48.000;9.654;2022-12-16T08:06:21;23.40;;;14.97;;
20884;SDS011;10602;48.000;9.654;2022-12-16T08:09:06;27.13;;;16.30;;
20884;SDS011;10602;48.000;9.654;2022-12-16T08:11:52;22.50;;;15.50;;
20884;SDS011;10602;48.000;9.654;2022-12-16T08:14:37;23.13;;;15.33;;
20884;SDS011;10602;48.000;9.654;2022-12-16T08:17:22;25.23;;;16.10;;
20884;SDS011;10602;48.000;9.654;2022-12-16T08:20:08;21.77;;;15.10;;
20884;SDS011;10602;48.000;9.654;2022-12-16T08:22:53;22.80;;;15.70;;
20884;SDS011;10602;48.000;9.654;2022-12-16T08:25:51;24.13;;;16.50;;
20884;SDS011;10602;48.000;9.654;2022-12-16T08:28:36;23.53;;;15.53;;
20884;SDS011;10602;48.000;9.654;2022-12-16T08:31:21;25.33;;;15.90;;
20884;SDS011;10602;48.000;9.654;2022-12-16T08:34:07;23.37;;;15.27;;
20884;SDS011;10602;48.000;9.654;2022-12-16T08:36:52;23.03;;;15.50;;
20884;SDS011;10602;48.000;9.654;2022-12-16T08:39:38;21.77;;;16.13;;
20884;SDS011;10602;48.000;9.654;2022-12-16T08:42:23;21.80;;;14.63;;
20884;SDS011;10602;48.000;9.654;2022-12-16T08:45:08;20.73;;;15.23;;
20884;SDS011;10602;48.000;9.654;2022-12-16T08:47:53;22.90;;;16.27;;
20884;SDS011;10602;48.000;9.654;2022-12-16T08:50:38;18.60;;;13.60;;
20884;SDS011;10602;48.000;9.654;2022-12-16T08:53:24;21.77;;;15.43;;
20884;SDS011;10602;48.000;9.654;2022-12-16T08:56:09;20.53;;;13.57;;
20884;SDS011;10602;48.000;9.654;2022-12-16T08:58:54;20.23;;;14.50;;
20884;SDS011;10602;48.000;9.654;2022-12-16T09:01:40;20.20;;;14.03;;
20884;SDS011;10602;48.000;9.654;2022-12-16T09:04:25;21.93;;;14.27;;
20884;SDS011;10602;48.000;9.654;2022-12-16T09:07:11;20.83;;;14.57;;
20884;SDS011;10602;48.000;9.654;2022-12-16T09:09:57;18.13;;;13.73;;
20884;SDS011;10602;48.000;9.654;2022-12-16T09:12:42;19.40;;;13.77;;
20884;SDS011;10602;48.000;9.654;2022-12-16T09:15:28;19.27;;;13.30;;
20884;SDS011;10602;48.000;9.654;2022-12-16T09:18:13;17.70;;;12.90;;
20884;SDS011;10602;48.000;9.654;2022-12-16T09:20:59;20.80;;;14.10;;
20884;SDS011;10602;48.000;9.654;2022-12-16T09:23:44;17.53;;;13.47;;
20884;SDS011;10602;48.000;9.654;2022-12-16T09:26:30;17.40;;;12.93;;
20884;SDS011;10602;48.000;9.654;2022-12-16T09:29:16;18.63;;;13.90;;
20884;SDS011;10602;48.000;9.654;2022-12-16T09:32:02;18.83;;;13.63;;
20884;SDS011;10602;48.000;9.654;2022-12-16T09:34:47;17.87;;;13.07;;
20884;SDS011;10602;48.000;9.654;2022-12-16T09:37:31;19.37;;;13.83;;
20884;SDS011;10602;48.000;9.654;2022-12-16T09:40:19;16.80;;;12.97;;
20884;SDS011;10602;48.000;9.654;2022-12-16T09:46:22;20.00;;;13.70;;
20884;SDS011;10602;48.000;9.654;2022-12-16T09:52:28;18.57;;;13.57;;
20884;SDS011;10602;48.000;9.654;2022-12-16T09:58:16;20.37;;;14.50;;
20884;SDS011;10602;48.000;9.654;2022-12-16T10:01:04;17.73;;;13.43;;
20884;SDS011;10602;48.000;9.654;2022-12-16T10:03:51;19.67;;;15.03;;
20884;SDS011;10602;48.000;9.654;2022-12-16T10:09:57;21.23;;;14.93;;
20884;SDS011;10602;48.000;9.654;2022-12-16T10:16:18;20.43;;;13.73;;
20884;SDS011;10602;48.000;9.654;2022-12-16T10:22:31;18.33;;;13.40;;
20884;SDS011;10602;48.000;9.654;2022-12-16T10:25:27;19.00;;;14.37;;
20884;SDS011;10602;48.000;9.654;2022-12-16T10:28:28;18.93;;;13.87;;
20884;SDS011;10602;48.000;9.654;2022-12-16T10:31:24;21.33;;;15.10;;
20884;SDS011;10602;48.000;9.654;2022-12-16T10:34:10;17.67;;;13.23;;
20884;SDS011;10602;48.000;9.654;2022-12-16T10:36:58;29.07;;;18.20;;
20884;SDS011;10602;48.000;9.654;2022-12-16T10:39:50;42.37;;;24.87;;
20884;SDS011;10602;48.000;9.654;2022-12-16T10:42:39;32.00;;;20.57;;
20884;SDS011;10602;48.000;9.654;2022-12-16T10:45:36;31.77;;;20.73;;
20884;SDS011;10602;48.000;9.654;2022-12-16T10:48:25;23.17;;;15.57;;
20884;SDS011;10602;48.000;9.654;2022-12-16T10:51:15;20.60;;;14.23;;
20884;SDS011;10602;48.000;9.654;2022-12-16T10:57:29;19.10;;;14.13;;
20884;SDS011;10602;48.000;9.654;2022-12-16T11:00:40;20.60;;;14.03;;
20884;SDS011;10602;48.000;9.654;2022-12-16T11:03:28;17.97;;;14.03;;
20884;SDS011;10602;48.000;9.654;2022-12-16T11:06:16;19.67;;;14.20;;
20884;SDS011;10602;48.000;9.654;2022-12-16T11:09:29;20.77;;;14.13;;
20884;SDS011;10602;48.000;9.654;2022-12-16T11:15:32;18.77;;;14.03;;
20884;SDS011;10602;48.000;9.654;2022-12-16T11:18:08;18.80;;;13.67;;
20884;SDS011;10602;48.000;9.654;2022-12-16T11:21:04;19.90;;;14.30;;
20884;SDS011;10602;48.000;9.654;2022-12-16T11:24:03;23.20;;;14.80;;
20884;SDS011;10602;48.000;9.654;2022-12-16T11:26:51;20.73;;;14.70;;
20884;SDS011;10602;48.000;9.654;2022-12-16T11:29:57;19.23;;;14.10;;
20884;SDS011;10602;48.000;9.654;2022-12-16T11:32:48;18.87;;;13.97;;
20884;SDS011;10602;48.000;9.654;2022-12-16T11:35:33;19.47;;;15.13;;
20884;SDS011;10602;48.000;9.654;2022-12-16T11:38:26;19.03;;;13.97;;
20884;SDS011;10602;48.000;9.654;2022-12-16T11:41:14;18.13;;;14.07;;
20884;SDS011;10602;48.000;9.654;2022-12-16T11:44:01;18.13;;;14.10;;
20884;SDS011;10602;48.000;9.654;2022-12-16T11:46:47;19.93;;;14.77;;
20884;SDS011;10602;48.000;9.654;2022-12-16T11:49:33;19.10;;;14.60;;
20884;SDS011;10602;48.000;9.654;2022-12-16T11:52:19;23.00;;;15.93;;
20884;SDS011;10602;48.000;9.654;2022-12-16T11:58:05;19.27;;;14.43;;
20884;SDS011;10602;48.000;9.654;2022-12-16T12:04:17;21.27;;;15.87;;
20884;SDS011;10602;48.000;9.654;2022-12-16T12:07:12;20.80;;;15.63;;
20884;SDS011;10602;48.000;9.654;2022-12-16T12:10:28;20.83;;;14.47;;
20884;SDS011;10602;48.000;9.654;2022-12-16T12:13:15;20.07;;;13.97;;
20884;SDS011;10602;48.000;9.654;2022-12-16T12:16:11;19.97;;;14.90;;
20884;SDS011;10602;48.000;9.654;2022-12-16T12:19:26;23.07;;;16.23;;
20884;SDS011;10602;48.000;9.654;2022-12-16T12:22:21;23.07;;;16.40;;
20884;SDS011;10602;48.000;9.654;2022-12-16T12:25:18;41.27;;;25.03;;
20884;SDS011;10602;48.000;9.654;2022-12-16T12:31:06;50.50;;;26.53;;
20884;SDS011;10602;48.000;9.654;2022-12-16T12:37:08;67.60;;;35.73;;
20884;SDS011;10602;48.000;9.654;2022-12-16T12:40:15;55.77;;;29.77;;
20884;SDS011;10602;48.000;9.654;2022-12-16T12:43:03;32.63;;;21.13;;
20884;SDS011;10602;48.000;9.654;2022-12-16T12:46:00;30.83;;;20.37;;
20884;SDS011;10602;48.000;9.654;2022-12-16T12:49:02;27.30;;;17.80;;
20884;SDS011;10602;48.000;9.654;2022-12-16T12:51:45;24.07;;;16.23;;
20884;SDS011;10602;48.000;9.654;2022-12-16T12:54:56;29.13;;;18.63;;
20884;SDS011;10602;48.000;9.654;2022-12-16T12:57:39;34.20;;;21.37;;
20884;SDS011;10602;48.000;9.654;2022-12-16T13:00:26;29.77;;;18.73;;
20884;SDS011;10602;48.000;9.654;2022-12-16T13:03:23;27.87;;;19.13;;
20884;SDS011;10602;48.000;9.654;2022-12-16T13:06:17;26.33;;;17.30;;
20884;SDS011;10602;48.000;9.654;2022-12-16T13:09:21;35.50;;;22.10;;
20884;SDS011;10602;48.000;9.654;2022-12-16T13:15:01;29.63;;;19.37;;
20884;SDS011;10602;48.000;9.654;2022-12-16T13:23:39;33.00;;;20.87;;
20884;SDS011;10602;48.000;9.654;2022-12-16T13:26:30;23.47;;;16.47;;
20884;SDS011;10602;48.000;9.654;2022-12-16T13:58:04;23.43;;;14.73;;
20884;SDS011;10602;48.000;9.654;2022-12-16T14:00:55;25.60;;;16.47;;
20884;SDS011;10602;48.000;9.654;2022-12-16T14:03:48;20.30;;;13.27;;
20884;SDS011;10602;48.000;9.654;2022-12-16T14:06:34;20.70;;;13.93;;
20884;SDS011;10602;48.000;9.654;2022-12-16T14:12:47;23.33;;;13.63;;
20884;SDS011;10602;48.000;9.654;2022-12-16T14:21:56;21.03;;;13.33;;
20884;SDS011;10602;48.000;9.654;2022-12-16T14:25:12;21.93;;;12.47;;
20884;SDS011;10602;48.000;9.654;2022-12-16T14:28:06;18.13;;;11.43;;
20884;SDS011;10602;48.000;9.654;2022-12-16T14:31:03;19.33;;;11.87;;
20884;SDS011;10602;48.000;9.654;2022-12-16T14:34:04;19.17;;;12.07;;
20884;SDS011;10602;48.000;9.654;2022-12-16T14:36:47;19.30;;;12.07;;
20884;SDS011;10602;48.000;9.654;2022-12-16T14:39:37;22.30;;;15.03;;
20884;SDS011;10602;48.000;9.654;2022-12-16T14:42:24;18.10;;;10.97;;
20884;SDS011;10602;48.000;9.654;2022-12-16T14:45:31;20.57;;;11.60;;
20884;SDS011;10602;48.000;9.654;2022-12-16T14:57:04;20.37;;;11.73;;
20884;SDS011;10602;48.000;9.654;2022-12-16T15:00:03;20.10;;;11.43;;
20884;SDS011;10602;48.000;9.654;2022-12-16T15:05:46;16.17;;;10.83;;
20884;SDS011;10602;48.000;9.654;2022-12-16T15:08:35;16.50;;;11.13;;
20884;SDS011;10602;48.000;9.654;2022-12-16T15:11:21;17.37;;;10.83;;
20884;SDS011;10602;48.000;9.654;2022-12-16T15:14:09;16.77;;;11.03;;
20884;SDS011;10602;48.000;9.654;2022-12-16T15:16:57;15.13;;;10.40;;
20884;SDS011;10602;48.000;9.654;2022-12-16T15:19:44;17.83;;;11.20;;
20884;SDS011;10602;48.000;9.654;2022-12-16T15:22:31;18.70;;;11.70;;
20884;SDS011;10602;48.000;9.654;2022-12-16T15:25:18;21.47;;;12.63;;
20884;SDS011;10602;48.000;9.654;2022-12-16T15:28:18;19.17;;;12.13;;
20884;SDS011;10602;48.000;9.654;2022-12-16T15:31:20;20.33;;;12.63;;
20884;SDS011;10602;48.000;9.654;2022-12-16T15:37:14;23.67;;;13.53;;
20884;SDS011;10602;48.000;9.654;2022-12-16T15:40:27;24.53;;;17.73;;
20884;SDS011;10602;48.000;9.654;2022-12-16T15:43:02;24.23;;;15.63;;
20884;SDS011;10602;48.000;9.654;2022-12-16T15:45:46;20.03;;;11.90;;
20884;SDS011;10602;48.000;9.654;2022-12-16T15:48:32;20.03;;;11.30;;
20884;SDS011;10602;48.000;9.654;2022-12-16T15:51:28;19.37;;;12.13;;
20884;SDS011;10602;48.000;9.654;2022-12-16T15:54:14;19.63;;;11.70;;
20884;SDS011;10602;48.000;9.654;2022-12-16T15:57:01;21.00;;;12.20;;
20884;SDS011;10602;48.000;9.654;2022-12-16T15:59:53;18.33;;;11.97;;
20884;SDS011;10602;48.000;9.654;2022-12-16T16:02:44;20.93;;;12.77;;
20884;SDS011;10602;48.000;9.654;2022-12-16T16:05:31;21.03;;;12.67;;
20884;SDS011;10602;48.000;9.654;2022-12-16T16:08:19;18.50;;;11.47;;
20884;SDS011;10602;48.000;9.654;2022-12-16T16:11:04;19.50;;;12.90;;
20884;SDS011;10602;48.000;9.654;2022-12-16T16:13:51;21.63;;;11.70;;
20884;SDS011;10602;48.000;9.654;2022-12-16T16:16:36;21.03;;;13.77;;
20884;SDS011;10602;48.000;9.654;2022-12-16T16:19:23;22.53;;;13.77;;
20884;SDS011;10602;48.000;9.654;2022-12-16T16:22:10;22.67;;;13.17;;
20884;SDS011;10602;48.000;9.654;2022-12-16T16:24:56;24.53;;;13.60;;
20884;SDS011;10602;48.000;9.654;2022-12-16T16:27:41;20.77;;;12.63;;
20884;SDS011;10602;48.000;9.654;2022-12-16T16:30:27;19.67;;;12.27;;
20884;SDS011;10602;48.000;9.654;2022-12-16T16:33:14;19.43;;;11.83;;
20884;SDS011;10602;48.000;9.654;2022-12-16T16:39:03;21.03;;;12.50;;
20884;SDS011;10602;48.000;9.654;2022-12-16T16:42:02;23.17;;;13.83;;
20884;SDS011;10602;48.000;9.654;2022-12-16T16:47:51;23.93;;;14.97;;
20884;SDS011;10602;48.000;9.654;2022-12-16T16:50:40;23.50;;;14.23;;
20884;SDS011;10602;48.000;9.654;2022-12-16T16:53:26;25.17;;;14.77;;
20884;SDS011;10602;48.000;9.654;2022-12-16T16:56:11;23.33;;;13.80;;
20884;SDS011;10602;48.000;9.654;2022-12-16T16:58:56;22.13;;;15.00;;
20884;SDS011;10602;48.000;9.654;2022-12-16T17:01:42;25.00;;;14.87;;
20884;SDS011;10602;48.000;9.654;2022-12-16T17:04:27;22.60;;;13.60;;
20884;SDS011;10602;48.000;9.654;2022-12-16T17:07:13;21.20;;;12.97;;
20884;SDS011;10602;48.000;9.654;2022-12-16T17:09:59;23.77;;;13.90;;
20884;SDS011;10602;48.000;9.654;2022-12-16T17:12:46;20.50;;;13.70;;
20884;SDS011;10602;48.000;9.654;2022-12-16T17:15:32;21.47;;;13.97;;
20884;SDS011;10602;48.000;9.654;2022-12-16T17:18:20;24.80;;;14.43;;
20884;SDS011;10602;48.000;9.654;2022-12-16T17:21:05;20.97;;;12.80;;
20884;SDS011;10602;48.000;9.654;2022-12-16T17:23:55;22.40;;;12.90;;
20884;SDS011;10602;48.000;9.654;2022-12-16T17:26:41;22.63;;;12.90;;
20884;SDS011;10602;48.000;9.654;2022-12-16T17:29:27;21.63;;;11.77;;
20884;SDS011;10602;48.000;9.654;2022-12-16T17:32:13;20.47;;;12.60;;
20884;SDS011;10602;48.000;9.654;2022-12-16T17:34:58;18.80;;;11.70;;
20884;SDS011;10602;48.000;9.654;2022-12-16T17:37:51;20.50;;;12.67;;
20884;SDS011;10602;48.000;9.654;2022-12-16T17:40:31;22.77;;;13.03;;
20884;SDS011;10602;48.000;9.654;2022-12-16T17:43:16;27.10;;;16.67;;
20884;SDS011;10602;48.000;9.654;2022-12-16T17:46:03;30.50;;;18.33;;
20884;SDS011;10602;48.000;9.654;2022-12-16T17:48:53;29.40;;;16.60;;
20884;SDS011;10602;48.000;9.654;2022-12-16T17:51:40;24.67;;;17.10;;
20884;SDS011;10602;48.000;9.654;2022-12-16T17:54:31;23.50;;;16.10;;
20884;SDS011;10602;48.000;9.654;2022-12-16T17:57:17;24.43;;;17.57;;
20884;SDS011;10602;48.000;9.654;2022-12-16T18:00:04;20.87;;;12.63;;
20884;SDS011;10602;48.000;9.654;2022-12-16T18:02:50;20.63;;;13.60;;
20884;SDS011;10602;48.000;9.654;2022-12-16T18:05:38;24.63;;;14.93;;
20884;SDS011;10602;48.000;9.654;2022-12-16T18:08:24;21.07;;;13.13;;
20884;SDS011;10602;48.000;9.654;2022-12-16T18:11:10;22.27;;;13.97;;
20884;SDS011;10602;48.000;9.654;2022-12-16T18:13:55;20.37;;;13.20;;